Flight Track Log - Related Links

Times and Time Zones

All times are in EDT time to prevent confusion due to time zone crossing. See the N516QS flight status page for this flight to view local times or setup timezone preferences in your user account.

Time Position Orientation Groundspeed Altitude Reporting Facility
EDT Latitude Longitude Course Direction KTS MPH feet Rate Location/Type
Mon 04:09:52 PM 44.3683 -68.2458 98° East 288 331 6,400  Level Boston Center
Mon 04:10:52 PM 44.3725 -68.1353 87° East 296 341 9,500 2,750 Climbing Boston Center
Mon 04:11:52 PM 44.3781 -68.0069 86° East 304 350 11,900 2,900 Climbing Boston Center
Mon 04:12:52 PM 44.3850 -67.8611 86° East 340 391 15,300 3,150 Climbing Boston Center
Mon 04:13:52 PM 44.3911 -67.7067 87° East 376 433 18,200 2,950 Climbing Boston Center
Mon 04:14:00 PM 44.5532 -67.3886 90° East  Level Estimated
Mon 04:14:52 PM 44.3989 -67.5403 86° East 405 466 21,200  Level Boston Center
Mon 04:15:52 PM 44.4019 -67.3714 88° East 421 484 23,700 2,300 Climbing Boston Center
Mon 04:16:52 PM 44.4083 -67.1903 87° East 446 513 25,800 2,224 Climbing Boston Center
Mon 04:17:48 PM 44.4000 -67.0167 94° East 470 541 28,000 1,138 Climbing Moncton Center
Mon 04:18:48 PM 44.4167 -66.8333 83° East 470 541 28,000 950 Level Moncton Center
Mon 04:19:48 PM 44.4333 -66.6500 83° East 480 552 29,900 1,500 Climbing Moncton Center
Mon 04:20:48 PM 44.4500 -66.4500 83° East 500 575 31,000 550 Climbing Moncton Center
Mon 04:21:48 PM 44.4667 -66.2500 83° East 500 575 31,000  Level Moncton Center
Mon 04:22:48 PM 44.5000 -66.0667 76° East 500 575 31,000  Level Moncton Center
Mon 04:23:48 PM 44.5167 -65.8667 83° East 500 575 31,000 -350 Level Moncton Center
Mon 04:24:48 PM 44.5333 -65.6833 83° East 500 575 30,300 -1,200 Descending Moncton Center
Mon 04:25:48 PM 44.5500 -65.5000 83° East 490 564 28,600 -1,900 Descending Moncton Center
Mon 04:26:48 PM 44.5500 -65.3167 90° East 480 552 26,500 -2,100 Descending Moncton Center
Mon 04:27:48 PM 44.5333 -65.1167 97° East 480 552 24,400 -2,050 Descending Moncton Center
Mon 04:28:48 PM 44.5333 -64.9333 90° East 460 529 22,400 -1,700 Descending Moncton Center
Mon 04:29:48 PM 44.5500 -64.7667 82° East 450 518 21,000 -750 Descending Moncton Center
Mon 04:30:48 PM 44.5667 -64.6000 82° East 440 506 20,900 -1,100 Descending Moncton Center
Mon 04:31:48 PM 44.6000 -64.4500 73° East 430 495 18,800 -2,000 Descending Moncton Center
Mon 04:32:48 PM 44.6167 -64.2833 82° East 410 472 16,900 -2,200 Descending Moncton Center
Mon 04:33:48 PM 44.6500 -64.1333 73° East 400 460 14,400 -2,350 Descending Moncton Center
Mon 04:34:48 PM 44.6667 -64.0000 80° East 380 437 12,200 -2,150 Descending Moncton Center
Mon 04:35:48 PM 44.6833 -63.8500 81° East 340 391 10,100 -1,700 Descending Moncton Center
Mon 04:36:48 PM 44.7000 -63.7333 79° East 300 345 8,800 -1,700 Descending Moncton Center
Mon 04:37:48 PM 44.7167 -63.6167 79° East 270 311 6,700 -2,150 Descending Moncton Center
Mon 04:38:48 PM 44.7333 -63.5333 74° East 260 299 4,500 -2,000 Descending Moncton Center
Mon 04:39:48 PM 44.7667 -63.4500 61° Northeast 240 276 2,700 -1,050 Descending Moncton Center
Mon 04:40:48 PM 44.8167 -63.4000 35° Northeast 170 196 2,400 -700 Descending Moncton Center
Mon 04:41:48 PM 44.8333 -63.4333 305° West 150 173 1,300 -850 Descending Moncton Center
Mon 04:42:48 PM 44.8667 -63.4833 313° West 120 138 700 -600 Descending Moncton Center

Login

Don't have an account? Register now (free) for customized features, flight alerts, and more!